Time;durP1;ratioP1;P1;durP2;ratioP2;P2;SDS_P1;SDS_P2;PMS_P1;PMS_P2;Temp;Humidity;BMP_temperature;BMP_pressure;BME280_temperature;BME280_humidity;BME280_pressure;Samples;Min_cycle;Max_cycle;Signal;HPM_P1;HPM_P2
2023/02/21 02:14:13;;;;;;;35.73;17.37;;;8.60;99.90;;;;;;5028556;28;20233;-63
2023/02/21 02:16:42;;;;;;;39.73;19.03;;;8.50;99.90;;;;;;5027341;28;20274;-63
2023/02/21 02:19:29;;;;;;;42.53;20.40;;;8.50;99.90;;;;;;5029576;28;20188;-63
2023/02/21 02:22:27;;;;;;;42.73;19.07;;;8.60;99.90;;;;;;5026829;28;20219;-63
2023/02/21 02:25:05;;;;;;;36.40;19.57;;;8.50;99.90;;;;;;5029680;28;20206;-64
2023/02/21 02:27:55;;;;;;;40.53;19.40;;;8.60;99.90;;;;;;5030254;28;20303;-63
2023/02/21 02:30:31;;;;;;;44.50;19.73;;;8.60;99.90;;;;;;5029044;28;20203;-64
2023/02/21 02:33:23;;;;;;;42.53;20.17;;;8.60;99.90;;;;;;5028022;28;20284;-64
2023/02/21 02:36:08;;;;;;;42.87;19.17;;;8.50;99.90;;;;;;5037192;28;20223;-63
2023/02/21 02:39:04;;;;;;;45.20;20.37;;;8.50;99.90;;;;;;5027922;28;20201;-63
2023/02/21 02:41:46;;;;;;;43.73;20.87;;;8.50;99.90;;;;;;5028850;28;20199;-63
2023/02/21 02:44:20;;;;;;;42.70;18.87;;;8.60;99.90;;;;;;5031002;28;20230;-64
2023/02/21 02:46:49;;;;;;;44.30;21.37;;;8.50;99.90;;;;;;5026357;28;20294;-63
2023/02/21 02:49:20;;;;;;;48.57;21.50;;;8.50;99.90;;;;;;5037763;28;20211;-63
2023/02/21 02:51:48;;;;;;;48.97;22.57;;;8.50;99.90;;;;;;5031831;28;20220;-63
2023/02/21 02:54:14;;;;;;;50.50;22.43;;;8.50;99.90;;;;;;5033872;28;20206;-63
2023/02/21 02:56:41;;;;;;;45.50;21.37;;;8.60;99.90;;;;;;5032993;28;20234;-64
2023/02/21 02:59:16;;;;;;;46.00;22.17;;;8.50;99.90;;;;;;5030381;28;20318;-64
2023/02/21 03:01:46;;;;;;;51.17;22.53;;;8.50;99.90;;;;;;5033425;28;20203;-64
2023/02/21 03:04:31;;;;;;;46.90;22.13;;;8.60;99.90;;;;;;5034675;28;20234;-64
2023/02/21 03:07:15;;;;;;;46.43;20.17;;;8.50;99.90;;;;;;5032071;28;20510;-63
2023/02/21 03:09:45;;;;;;;43.83;20.37;;;8.60;99.90;;;;;;5032048;28;20357;-63
2023/02/21 03:12:34;;;;;;;53.33;23.77;;;8.60;99.90;;;;;;5034228;28;20661;-63
2023/02/21 03:15:18;;;;;;;49.03;21.70;;;8.60;99.90;;;;;;5030548;28;20556;-63
2023/02/21 03:17:56;;;;;;;44.33;21.10;;;8.50;99.90;;;;;;5031531;28;20319;-64
2023/02/21 03:20:23;;;;;;;49.27;22.60;;;8.50;99.90;;;;;;5030607;28;20197;-64
2023/02/21 03:22:52;;;;;;;51.43;22.37;;;8.60;99.90;;;;;;5035131;28;20246;-64
2023/02/21 03:25:21;;;;;;;52.27;23.00;;;8.60;99.90;;;;;;5030222;28;20284;-64
2023/02/21 03:27:50;;;;;;;54.03;24.30;;;8.60;99.90;;;;;;5033066;28;20309;-64
2023/02/21 03:30:18;;;;;;;51.87;22.07;;;8.50;99.90;;;;;;5033420;28;20210;-63
2023/02/21 03:32:51;;;;;;;47.60;23.27;;;8.50;99.90;;;;;;5029141;28;20219;-64
2023/02/21 03:35:19;;;;;;;52.83;23.33;;;8.50;99.90;;;;;;5029949;28;20202;-63
2023/02/21 03:37:48;;;;;;;55.47;22.60;;;8.40;99.90;;;;;;5032940;28;20250;-64
2023/02/21 03:40:17;;;;;;;57.43;23.20;;;8.50;99.90;;;;;;5027933;28;20642;-63
2023/02/21 03:42:45;;;;;;;59.50;23.93;;;8.50;99.90;;;;;;5034025;28;20200;-63
2023/02/21 03:45:12;;;;;;;53.83;24.10;;;8.60;99.90;;;;;;5030839;28;20276;-63
2023/02/21 03:47:38;;;;;;;54.57;24.03;;;8.50;99.90;;;;;;5028656;28;20208;-63
2023/02/21 03:50:06;;;;;;;55.73;24.30;;;8.50;99.90;;;;;;5031883;28;20672;-63
2023/02/21 03:52:33;;;;;;;54.80;23.57;;;8.50;99.90;;;;;;5033113;28;20225;-63
2023/02/21 03:55:00;;;;;;;57.80;23.20;;;8.40;99.90;;;;;;5030940;28;20320;-63
2023/02/21 03:57:27;;;;;;;59.27;24.10;;;8.50;99.90;;;;;;5032709;28;20340;-63
2023/02/21 03:59:54;;;;;;;57.63;24.87;;;8.50;99.90;;;;;;5029382;28;20731;-64
2023/02/21 04:02:21;;;;;;;57.33;24.70;;;8.60;99.90;;;;;;5029442;28;20653;-64
2023/02/21 04:04:48;;;;;;;62.13;25.33;;;8.60;99.90;;;;;;5033284;28;20211;-64
2023/02/21 04:07:17;;;;;;;62.60;24.73;;;8.60;99.90;;;;;;5032972;28;20284;-64
2023/02/21 04:09:44;;;;;;;58.27;25.30;;;8.70;99.90;;;;;;5031968;28;20254;-64
2023/02/21 04:12:11;;;;;;;67.93;26.80;;;8.60;99.90;;;;;;5014929;28;20304;-63
2023/02/21 04:14:38;;;;;;;66.03;25.40;;;8.60;99.90;;;;;;5029291;28;20292;-64
2023/02/21 04:17:05;;;;;;;64.00;25.67;;;8.50;99.90;;;;;;5027214;28;20212;-63
2023/02/21 04:19:32;;;;;;;66.30;26.27;;;8.50;99.90;;;;;;5026103;28;20198;-64
2023/02/21 04:21:58;;;;;;;62.33;25.20;;;8.50;99.90;;;;;;5029384;28;20708;-64
2023/02/21 04:24:25;;;;;;;61.63;25.13;;;8.50;99.90;;;;;;5031795;28;20664;-64
2023/02/21 04:26:52;;;;;;;64.90;25.37;;;8.60;99.90;;;;;;5027833;28;20647;-63
2023/02/21 04:29:19;;;;;;;65.97;26.40;;;8.50;99.90;;;;;;5028000;28;20207;-64
2023/02/21 04:31:46;;;;;;;66.60;27.20;;;8.50;99.90;;;;;;5028066;28;20236;-63
2023/02/21 04:34:13;;;;;;;66.77;25.07;;;8.60;99.90;;;;;;5030690;28;20200;-64
2023/02/21 04:36:40;;;;;;;68.43;26.93;;;8.60;99.90;;;;;;5031689;28;20219;-64
2023/02/21 04:39:07;;;;;;;61.40;25.70;;;8.60;99.90;;;;;;5024752;28;20655;-64
2023/02/21 04:41:34;;;;;;;62.97;25.27;;;8.50;99.90;;;;;;5027022;28;20305;-64
2023/02/21 04:44:00;;;;;;;72.17;26.97;;;8.50;99.90;;;;;;5029680;28;20203;-64
2023/02/21 04:46:27;;;;;;;65.17;26.70;;;8.50;99.90;;;;;;5026965;28;20257;-64
2023/02/21 04:48:54;;;;;;;73.83;27.27;;;8.50;99.90;;;;;;5026030;28;20233;-64
2023/02/21 04:51:23;;;;;;;63.57;26.20;;;8.50;99.90;;;;;;5028900;28;20556;-64
2023/02/21 04:53:51;;;;;;;59.13;25.43;;;8.50;99.90;;;;;;5026327;28;20533;-64
2023/02/21 04:56:19;;;;;;;77.33;26.37;;;8.50;99.90;;;;;;5028898;28;20232;-65
2023/02/21 04:58:47;;;;;;;63.37;25.80;;;8.50;99.90;;;;;;5028781;28;20211;-64
2023/02/21 05:01:16;;;;;;;74.23;26.03;;;8.50;99.90;;;;;;5025137;28;20285;-64
2023/02/21 05:03:43;;;;;;;64.47;25.00;;;8.60;99.90;;;;;;5031170;28;20205;-64
2023/02/21 05:06:19;;;;;;;60.90;24.70;;;8.50;99.90;;;;;;5025292;28;20222;-64
2023/02/21 05:08:47;;;;;;;60.40;24.63;;;8.60;99.90;;;;;;5029159;28;20346;-63
2023/02/21 05:11:14;;;;;;;60.87;23.80;;;8.70;99.90;;;;;;5029702;28;20409;-63
2023/02/21 05:13:41;;;;;;;56.40;23.67;;;8.60;99.90;;;;;;5026211;28;20656;-64
2023/02/21 05:16:08;;;;;;;60.53;26.40;;;8.70;99.90;;;;;;5028580;28;20215;-64
2023/02/21 05:18:37;;;;;;;61.27;25.47;;;8.70;99.90;;;;;;5027786;28;20228;-63
2023/02/21 05:21:05;;;;;;;62.90;24.97;;;8.60;99.90;;;;;;5027685;28;20445;-63
2023/02/21 05:23:34;;;;;;;60.30;25.20;;;8.60;99.90;;;;;;5028687;28;20308;-64
2023/02/21 05:26:12;;;;;;;59.40;26.07;;;8.60;99.90;;;;;;5024777;28;20208;-64
2023/02/21 05:28:39;;;;;;;59.47;25.53;;;8.60;99.90;;;;;;5028326;28;20201;-64
2023/02/21 05:31:07;;;;;;;71.77;26.23;;;8.50;99.90;;;;;;5025138;28;20680;-63
2023/02/21 05:33:34;;;;;;;71.53;27.00;;;8.40;99.90;;;;;;5026363;28;20254;-66
2023/02/21 05:36:01;;;;;;;74.47;25.80;;;8.40;99.90;;;;;;5027962;28;20231;-63
2023/02/21 05:38:28;;;;;;;67.03;28.23;;;8.40;99.90;;;;;;5025889;28;20203;-64
2023/02/21 05:40:55;;;;;;;61.07;25.10;;;8.50;99.90;;;;;;5028386;28;20212;-63
2023/02/21 05:43:22;;;;;;;63.07;26.20;;;8.40;99.90;;;;;;5030010;28;20239;-63
2023/02/21 05:45:48;;;;;;;69.63;24.77;;;8.30;99.90;;;;;;5028999;28;20220;-63
2023/02/21 05:48:15;;;;;;;66.57;24.60;;;8.30;99.90;;;;;;5027751;28;20200;-63
2023/02/21 05:50:43;;;;;;;65.37;25.93;;;8.30;99.90;;;;;;5025548;28;20223;-63
2023/02/21 05:53:10;;;;;;;64.77;24.73;;;8.30;99.90;;;;;;5028943;28;20399;-63
2023/02/21 05:55:37;;;;;;;57.03;21.97;;;8.30;99.90;;;;;;5027860;28;20239;-64
2023/02/21 05:58:04;;;;;;;66.27;25.47;;;8.20;99.90;;;;;;5026686;28;20197;-64
2023/02/21 06:00:31;;;;;;;64.57;24.57;;;8.20;99.90;;;;;;5030561;28;20200;-64
2023/02/21 06:02:58;;;;;;;62.27;24.83;;;8.20;99.90;;;;;;5027002;28;20662;-68
2023/02/21 06:05:25;;;;;;;58.03;23.33;;;8.20;99.90;;;;;;5024735;28;20213;-64
2023/02/21 06:07:52;;;;;;;64.23;23.87;;;8.20;99.90;;;;;;5029220;28;20211;-63
2023/02/21 06:10:19;;;;;;;58.63;22.13;;;8.20;99.90;;;;;;5027054;28;20620;-63
2023/02/21 06:12:46;;;;;;;54.23;21.63;;;8.20;99.90;;;;;;5031377;28;20225;-64
2023/02/21 06:15:14;;;;;;;62.40;24.10;;;8.20;99.90;;;;;;5028425;28;20202;-63
2023/02/21 06:17:42;;;;;;;52.30;20.13;;;8.30;99.90;;;;;;5031562;28;20210;-63
2023/02/21 06:20:16;;;;;;;60.37;22.17;;;8.20;99.90;;;;;;5028773;28;20283;-63
2023/02/21 06:22:43;;;;;;;62.10;22.97;;;8.20;99.90;;;;;;5027322;28;20588;-63
2023/02/21 06:25:10;;;;;;;68.80;23.50;;;8.20;99.90;;;;;;5035011;28;20720;-63
2023/02/21 06:27:37;;;;;;;56.30;23.00;;;8.30;99.90;;;;;;5032499;28;20247;-64
2023/02/21 06:30:05;;;;;;;62.30;22.37;;;8.30;99.90;;;;;;5031065;28;20260;-63
2023/02/21 06:32:32;;;;;;;60.50;22.70;;;8.30;99.90;;;;;;5032284;28;20231;-63
2023/02/21 06:34:59;;;;;;;55.90;21.10;;;8.20;99.90;;;;;;5031100;28;20197;-63
2023/02/21 06:37:27;;;;;;;55.77;22.07;;;8.30;99.90;;;;;;5031451;28;20273;-63
2023/02/21 06:39:54;;;;;;;47.10;19.47;;;8.20;99.90;;;;;;5035737;28;20202;-63
2023/02/21 06:42:21;;;;;;;54.83;19.53;;;8.20;99.90;;;;;;5029863;28;20208;-63
2023/02/21 06:44:49;;;;;;;60.50;21.77;;;8.20;99.90;;;;;;5032815;28;20252;-64
2023/02/21 06:47:17;;;;;;;45.40;20.53;;;8.30;99.90;;;;;;5028310;28;20269;-63
2023/02/21 06:49:44;;;;;;;53.30;20.10;;;8.30;99.90;;;;;;5031940;28;20213;-64
2023/02/21 06:52:10;;;;;;;52.43;20.70;;;8.40;99.90;;;;;;5028592;28;20200;-64
2023/02/21 06:54:37;;;;;;;49.93;20.50;;;8.30;99.90;;;;;;5035616;28;20733;-64
2023/02/21 06:57:04;;;;;;;50.50;19.50;;;8.30;99.90;;;;;;5030930;28;20331;-64
2023/02/21 06:59:31;;;;;;;51.07;20.63;;;8.30;99.90;;;;;;5031140;28;20198;-64
2023/02/21 07:01:59;;;;;;;46.73;19.23;;;8.30;99.90;;;;;;5021798;28;20242;-65
2023/02/21 07:04:26;;;;;;;51.87;20.73;;;8.30;99.90;;;;;;5031512;28;20708;-63
2023/02/21 07:06:53;;;;;;;48.87;18.73;;;8.30;99.90;;;;;;5026457;28;20548;-63
2023/02/21 07:09:20;;;;;;;50.03;18.83;;;8.30;99.90;;;;;;5032390;28;20751;-64
2023/02/21 07:11:46;;;;;;;50.23;19.43;;;8.20;99.90;;;;;;5028325;28;20213;-66
2023/02/21 07:14:13;;;;;;;46.90;18.87;;;8.20;99.90;;;;;;5035841;28;20213;-63
2023/02/21 07:16:40;;;;;;;50.90;19.23;;;8.30;99.90;;;;;;5032359;28;20711;-63
2023/02/21 07:19:07;;;;;;;42.73;17.43;;;8.40;99.90;;;;;;5028611;28;20564;-63
2023/02/21 07:21:35;;;;;;;52.33;19.10;;;8.30;99.90;;;;;;5032406;28;20247;-63
2023/02/21 07:24:02;;;;;;;51.23;18.57;;;8.30;99.90;;;;;;5031338;28;20207;-64
2023/02/21 07:26:28;;;;;;;49.63;19.10;;;8.40;99.90;;;;;;5041356;28;20232;-63
2023/02/21 07:28:55;;;;;;;44.00;18.40;;;8.30;99.90;;;;;;5033737;28;20207;-63
2023/02/21 07:31:22;;;;;;;43.47;17.50;;;8.30;99.90;;;;;;5035069;28;20253;-63
2023/02/21 07:33:49;;;;;;;41.33;17.03;;;8.30;99.90;;;;;;5038769;28;20247;-64
2023/02/21 07:36:16;;;;;;;41.30;17.57;;;8.20;99.90;;;;;;5037220;28;20696;-63
2023/02/21 07:38:43;;;;;;;50.73;18.70;;;8.30;99.90;;;;;;5032488;28;20598;-63
2023/02/21 07:41:10;;;;;;;44.00;16.30;;;8.30;99.90;;;;;;5029812;28;20211;-63
2023/02/21 07:43:38;;;;;;;44.43;17.03;;;8.50;99.90;;;;;;5033418;28;20301;-64
2023/02/21 07:46:12;;;;;;;35.20;15.53;;;8.30;99.90;;;;;;5033266;28;20202;-63
2023/02/21 07:48:39;;;;;;;40.97;15.53;;;8.20;99.90;;;;;;5029793;28;20208;-64
2023/02/21 07:51:07;;;;;;;42.90;16.60;;;8.20;99.90;;;;;;5030703;28;20722;-64
2023/02/21 07:53:34;;;;;;;43.47;16.00;;;8.30;99.90;;;;;;5034887;28;20363;-64
2023/02/21 07:56:02;;;;;;;41.87;16.73;;;8.30;99.90;;;;;;5037318;28;20236;-64
2023/02/21 07:58:31;;;;;;;39.63;15.40;;;8.40;99.90;;;;;;5038896;28;20563;-65
2023/02/21 08:00:58;;;;;;;36.93;14.73;;;8.40;99.90;;;;;;5039644;28;20280;-65
2023/02/21 08:03:24;;;;;;;39.53;15.70;;;8.30;99.90;;;;;;5033996;28;20230;-64
2023/02/21 08:05:51;;;;;;;47.03;16.50;;;8.30;99.90;;;;;;5038210;28;20237;-64
2023/02/21 08:08:18;;;;;;;36.43;14.77;;;8.40;99.90;;;;;;5039625;28;20199;-64
2023/02/21 08:10:45;;;;;;;42.17;15.03;;;8.30;99.90;;;;;;5040720;28;20214;-64
2023/02/21 08:13:12;;;;;;;39.97;14.17;;;8.40;99.90;;;;;;5038361;28;20652;-64
2023/02/21 08:15:38;;;;;;;40.13;14.53;;;8.30;99.90;;;;;;5035311;28;20199;-63
2023/02/21 08:18:05;;;;;;;36.13;14.80;;;8.30;99.90;;;;;;5033154;28;20203;-65
2023/02/21 08:20:33;;;;;;;45.97;15.50;;;8.30;99.90;;;;;;5036524;28;20207;-64
2023/02/21 08:23:00;;;;;;;38.17;14.27;;;8.40;99.90;;;;;;5037160;28;20652;-64
2023/02/21 08:25:27;;;;;;;39.60;15.07;;;8.30;99.90;;;;;;5041667;28;20290;-64
2023/02/21 08:27:54;;;;;;;35.83;14.33;;;8.30;99.90;;;;;;5039135;28;20290;-64
2023/02/21 08:30:21;;;;;;;37.30;14.47;;;8.30;99.90;;;;;;5038318;28;20607;-64
2023/02/21 08:32:50;;;;;;;39.43;14.40;;;8.30;99.90;;;;;;5036861;28;20248;-66
2023/02/21 08:35:18;;;;;;;32.27;14.20;;;8.30;99.90;;;;;;5038863;28;20564;-65
2023/02/21 08:37:49;;;;;;;35.53;13.30;;;8.40;99.90;;;;;;5035791;28;20227;-65
2023/02/21 08:40:19;;;;;;;34.03;13.33;;;8.50;99.90;;;;;;4671242;28;10000009;-65
2023/02/21 08:42:50;;;;;;;32.43;14.17;;;8.50;99.90;;;;;;5030217;28;20231;-64
2023/02/21 08:45:19;;;;;;;34.30;13.87;;;8.50;99.90;;;;;;5034316;28;20201;-64
2023/02/21 08:47:46;;;;;;;29.43;12.57;;;8.60;99.90;;;;;;5031365;28;20250;-64
2023/02/21 08:50:14;;;;;;;32.50;11.83;;;8.60;99.90;;;;;;5028261;28;20741;-64
2023/02/21 08:52:40;;;;;;;34.37;12.47;;;8.50;99.90;;;;;;5030275;28;20601;-63
2023/02/21 08:55:07;;;;;;;33.93;14.17;;;8.50;99.90;;;;;;5027619;28;20628;-64
2023/02/21 08:57:34;;;;;;;31.53;12.50;;;8.50;99.90;;;;;;5033943;28;20778;-64
2023/02/21 09:00:01;;;;;;;33.30;12.70;;;8.40;99.90;;;;;;5034424;28;20205;-64
2023/02/21 09:02:29;;;;;;;30.60;11.30;;;8.30;99.90;;;;;;5031755;28;20293;-65
2023/02/21 09:04:56;;;;;;;22.33;11.03;;;8.30;99.90;;;;;;5030912;28;20890;-64
2023/02/21 09:07:23;;;;;;;29.87;11.40;;;8.30;99.90;;;;;;5031403;28;20292;-64
2023/02/21 09:09:49;;;;;;;29.40;12.00;;;8.20;99.90;;;;;;5021348;28;20690;-64
2023/02/21 09:12:17;;;;;;;27.93;11.27;;;8.20;99.90;;;;;;5031374;28;20199;-66
2023/02/21 09:14:44;;;;;;;26.77;11.63;;;8.20;99.90;;;;;;5031195;28;20257;-64
2023/02/21 09:17:13;;;;;;;29.50;11.40;;;8.30;99.90;;;;;;5032318;28;20205;-64
2023/02/21 09:19:40;;;;;;;27.93;10.80;;;8.20;99.90;;;;;;5029484;28;20199;-63
2023/02/21 09:22:08;;;;;;;33.00;12.43;;;8.20;99.90;;;;;;5030543;28;20656;-64
2023/02/21 09:24:34;;;;;;;32.43;12.73;;;8.30;99.90;;;;;;5032534;28;20216;-64
2023/02/21 09:27:02;;;;;;;28.67;11.00;;;8.30;99.90;;;;;;5030073;28;20827;-64
2023/02/21 09:29:34;;;;;;;33.77;13.10;;;8.20;99.90;;;;;;5039261;28;20251;-64
2023/02/21 09:32:12;;;;;;;32.17;12.83;;;8.20;99.90;;;;;;5036039;28;20339;-63
2023/02/21 09:34:39;;;;;;;30.37;13.03;;;8.10;99.90;;;;;;5029341;28;20221;-64
2023/02/21 09:37:06;;;;;;;31.60;12.20;;;8.20;99.90;;;;;;5033065;28;20432;-64
2023/02/21 09:39:36;;;;;;;30.80;12.57;;;8.20;99.90;;;;;;5023721;28;20237;-64
2023/02/21 09:42:03;;;;;;;36.00;13.23;;;8.10;99.90;;;;;;5026407;28;20220;-65
2023/02/21 09:44:30;;;;;;;39.20;13.13;;;8.20;99.90;;;;;;5030817;28;20239;-65
2023/02/21 09:46:59;;;;;;;40.60;13.93;;;8.20;99.90;;;;;;5031743;28;20208;-63
2023/02/21 09:49:40;;;;;;;32.40;13.30;;;8.20;99.90;;;;;;5029191;28;20851;-64
2023/02/21 09:52:21;;;;;;;32.17;13.00;;;8.30;99.90;;;;;;5017523;28;20574;-64
2023/02/21 09:54:55;;;;;;;29.70;11.43;;;8.20;99.90;;;;;;5024399;28;20313;-65
2023/02/21 09:57:22;;;;;;;26.47;11.00;;;8.20;99.90;;;;;;5029537;28;20195;-64
2023/02/21 09:59:48;;;;;;;24.93;10.93;;;8.20;99.90;;;;;;5023313;28;20295;-65
2023/02/21 10:02:18;;;;;;;26.23;12.07;;;8.10;99.90;;;;;;5016544;28;20416;-64
2023/02/21 10:05:12;;;;;;;29.87;11.37;;;8.20;99.90;;;;;;5029137;28;20263;-64
2023/02/21 10:07:51;;;;;;;28.50;11.17;;;8.20;99.90;;;;;;5033683;28;20296;-64
2023/02/21 10:10:54;;;;;;;29.50;13.40;;;8.20;99.90;;;;;;5027700;28;20215;-65
2023/02/21 10:13:34;;;;;;;32.03;12.80;;;8.30;99.90;;;;;;5026406;28;20226;-65
2023/02/21 10:16:03;;;;;;;33.47;13.47;;;8.20;99.90;;;;;;5025491;28;20296;-64
2023/02/21 10:18:39;;;;;;;33.17;12.20;;;8.20;99.90;;;;;;5032329;28;20207;-65
2023/02/21 10:21:23;;;;;;;31.63;13.73;;;8.20;99.90;;;;;;5031306;28;20205;-64
2023/02/21 10:23:53;;;;;;;33.97;12.83;;;8.20;99.90;;;;;;5035024;28;20208;-64
2023/02/21 10:26:28;;;;;;;31.33;12.33;;;8.30;99.90;;;;;;5030028;28;20205;-65
2023/02/21 10:28:55;;;;;;;31.50;12.30;;;8.30;99.90;;;;;;5033070;28;20283;-64
2023/02/21 10:31:30;;;;;;;30.93;13.37;;;8.20;99.90;;;;;;5031927;28;20211;-65
2023/02/21 10:33:58;;;;;;;30.43;12.47;;;8.20;99.90;;;;;;5033907;28;20226;-65
2023/02/21 10:36:26;;;;;;;33.70;13.03;;;8.20;99.90;;;;;;5033124;28;20633;-65
2023/02/21 10:39:08;;;;;;;29.03;11.97;;;8.20;99.90;;;;;;5030659;28;20201;-64
2023/02/21 10:41:38;;;;;;;31.73;12.70;;;8.20;99.90;;;;;;5026627;28;20291;-65
2023/02/21 10:44:08;;;;;;;29.50;12.57;;;8.30;99.90;;;;;;5031570;28;20223;-65
2023/02/21 10:47:10;;;;;;;29.13;13.03;;;8.30;99.90;;;;;;5026319;28;20220;-65
2023/02/21 10:49:53;;;;;;;25.70;11.40;;;8.20;99.90;;;;;;5036153;28;20196;-65
2023/02/21 10:52:22;;;;;;;33.20;12.73;;;8.40;99.90;;;;;;5030765;28;20292;-65
2023/02/21 10:55:04;;;;;;;30.87;13.13;;;8.40;99.90;;;;;;5030404;28;20214;-69
2023/02/21 10:57:37;;;;;;;29.73;12.57;;;8.30;99.90;;;;;;5035075;28;20227;-65
2023/02/21 11:00:09;;;;;;;29.90;12.50;;;8.30;99.90;;;;;;5036979;28;20672;-64
2023/02/21 11:02:39;;;;;;;28.43;12.80;;;8.30;99.90;;;;;;5031990;28;20215;-65
2023/02/21 11:05:16;;;;;;;28.03;11.13;;;8.30;99.90;;;;;;5035344;28;20302;-63
2023/02/21 11:08:02;;;;;;;35.17;13.87;;;8.30;99.90;;;;;;5035824;28;20201;-63
2023/02/21 11:10:40;;;;;;;28.63;11.50;;;8.30;99.90;;;;;;5032182;28;20288;-63
2023/02/21 11:13:09;;;;;;;30.00;12.30;;;8.40;99.90;;;;;;5037541;28;20543;-63
2023/02/21 11:15:36;;;;;;;30.33;11.77;;;8.30;99.90;;;;;;5037786;28;20205;-63
2023/02/21 11:18:21;;;;;;;29.53;11.20;;;8.30;99.90;;;;;;5038934;28;20243;-63
2023/02/21 11:20:49;;;;;;;29.63;12.17;;;8.40;99.90;;;;;;5035885;28;20206;-63
2023/02/21 11:23:19;;;;;;;34.67;13.63;;;8.30;99.90;;;;;;5039935;28;20202;-64
2023/02/21 11:25:47;;;;;;;32.00;12.87;;;8.40;99.90;;;;;;5037547;28;20230;-63
2023/02/21 11:28:14;;;;;;;31.93;13.00;;;8.50;99.90;;;;;;5038353;28;20291;-63
2023/02/21 11:30:50;;;;;;;31.50;13.57;;;8.50;99.90;;;;;;5039546;28;20244;-63
2023/02/21 11:33:20;;;;;;;33.13;12.57;;;8.60;99.90;;;;;;5039625;28;20635;-64
2023/02/21 11:35:49;;;;;;;35.50;13.53;;;8.50;99.90;;;;;;5039332;28;20290;-64
2023/02/21 11:38:34;;;;;;;33.07;13.47;;;8.70;99.90;;;;;;5038331;28;20207;-64
2023/02/21 11:41:14;;;;;;;29.30;12.77;;;8.50;99.90;;;;;;5036048;28;20287;-66
2023/02/21 11:43:55;;;;;;;28.73;12.33;;;8.50;99.90;;;;;;5038875;28;20244;-64
2023/02/21 11:46:33;;;;;;;32.50;13.00;;;8.60;99.90;;;;;;5035811;28;20220;-64
2023/02/21 11:49:03;;;;;;;32.80;12.30;;;8.50;99.90;;;;;;5037537;28;20673;-64
2023/02/21 11:51:29;;;;;;;23.80;10.80;;;8.60;99.90;;;;;;5040493;28;20204;-63
2023/02/21 11:53:56;;;;;;;27.10;12.27;;;8.50;99.90;;;;;;5040111;28;20704;-63
2023/02/21 11:56:33;;;;;;;28.47;10.43;;;8.40;99.90;;;;;;5037626;28;20322;-63
2023/02/21 11:59:19;;;;;;;23.23;10.67;;;8.30;99.90;;;;;;5038689;28;20276;-64
2023/02/21 12:01:57;;;;;;;23.27;10.57;;;8.30;99.90;;;;;;5033596;28;20256;-63
2023/02/21 12:04:57;;;;;;;29.00;11.77;;;8.50;99.90;;;;;;5040648;28;20210;-63
2023/02/21 12:07:29;;;;;;;25.50;10.93;;;8.60;99.90;;;;;;5039513;28;20288;-64
2023/02/21 12:10:04;;;;;;;24.93;11.97;;;8.60;99.90;;;;;;5037346;28;20245;-64
2023/02/21 12:12:37;;;;;;;27.63;11.10;;;8.70;99.90;;;;;;5037973;28;20247;-65
2023/02/21 12:15:24;;;;;;;24.87;10.40;;;8.60;99.90;;;;;;5037804;28;20210;-65
2023/02/21 12:18:48;;;;;;;24.90;9.57;;;8.60;99.90;;;;;;5037036;28;20207;-65
2023/02/21 12:21:31;;;;;;;22.47;9.57;;;8.70;99.90;;;;;;5004892;28;20361;-64
2023/02/21 12:24:26;;;;;;;23.40;9.87;;;8.80;99.90;;;;;;5007760;28;20203;-64
2023/02/21 12:27:02;;;;;;;17.33;7.20;;;8.60;99.90;;;;;;5005691;28;20220;-64
2023/02/21 12:29:37;;;;;;;18.23;8.63;;;8.80;99.90;;;;;;5004825;28;20229;-65
2023/02/21 12:32:29;;;;;;;22.17;9.33;;;8.90;99.90;;;;;;5003789;28;20306;-65
2023/02/21 12:35:26;;;;;;;20.03;9.57;;;8.90;99.90;;;;;;5005510;28;20216;-65
2023/02/21 12:38:03;;;;;;;23.87;9.93;;;8.80;99.90;;;;;;5006161;28;20201;-65
2023/02/21 12:40:38;;;;;;;24.23;9.87;;;8.80;99.90;;;;;;5003935;28;20608;-65
2023/02/21 12:43:16;;;;;;;25.47;11.17;;;8.90;99.90;;;;;;5002863;28;20225;-65
2023/02/21 12:46:00;;;;;;;24.13;10.17;;;8.80;99.90;;;;;;4989590;28;20617;-65
2023/02/21 12:49:00;;;;;;;23.43;10.83;;;8.90;99.90;;;;;;4982642;28;20201;-65
2023/02/21 12:51:32;;;;;;;26.83;11.73;;;8.90;99.90;;;;;;5013272;28;20236;-64
2023/02/21 12:54:04;;;;;;;25.37;11.77;;;8.90;99.90;;;;;;5036471;28;20218;-64
2023/02/21 12:56:38;;;;;;;25.90;11.00;;;8.80;99.90;;;;;;5031456;28;20333;-64
2023/02/21 12:59:14;;;;;;;26.87;11.27;;;8.90;99.90;;;;;;5037360;28;20201;-65
2023/02/21 13:01:49;;;;;;;21.70;10.23;;;8.90;99.90;;;;;;5036610;28;20202;-64
2023/02/21 13:04:50;;;;;;;24.27;11.47;;;8.90;99.90;;;;;;5039096;28;20204;-64
2023/02/21 13:07:26;;;;;;;20.37;9.73;;;9.00;99.90;;;;;;5037203;28;20210;-64
2023/02/21 13:10:11;;;;;;;22.13;9.93;;;8.90;99.90;;;;;;5035563;28;20203;-65
2023/02/21 13:12:45;;;;;;;21.03;10.67;;;8.90;99.90;;;;;;5038054;28;20213;-65
2023/02/21 13:15:21;;;;;;;22.90;10.03;;;9.00;99.90;;;;;;5036713;28;20300;-64
2023/02/21 13:18:15;;;;;;;18.10;8.97;;;9.00;99.90;;;;;;5051413;28;20223;-65
2023/02/21 13:20:51;;;;;;;20.50;9.50;;;8.90;99.90;;;;;;5038194;28;20210;-65
2023/02/21 13:26:31;;;;;;;17.10;8.23;;;9.00;99.90;;;;;;5034742;28;20507;-65
2023/02/21 13:28:58;;;;;;;15.27;8.13;;;9.10;99.90;;;;;;5036969;28;20209;-65
2023/02/21 13:31:41;;;;;;;18.23;8.93;;;9.10;99.90;;;;;;5035192;28;20287;-65
2023/02/21 13:34:16;;;;;;;15.87;8.33;;;9.20;99.90;;;;;;5038094;28;20241;-65
2023/02/21 13:36:45;;;;;;;16.53;8.40;;;9.20;99.90;;;;;;5036881;28;20225;-65
2023/02/21 13:39:14;;;;;;;17.57;8.53;;;9.20;99.90;;;;;;5035239;28;20705;-64
2023/02/21 13:41:43;;;;;;;21.70;9.60;;;9.10;99.90;;;;;;5035354;28;20617;-65
2023/02/21 13:44:17;;;;;;;20.20;10.77;;;9.00;99.90;;;;;;5035759;28;20211;-62
2023/02/21 13:46:43;;;;;;;15.77;9.20;;;9.00;99.90;;;;;;5036324;28;20622;-60
2023/02/21 13:49:35;;;;;;;15.67;8.60;;;9.10;99.90;;;;;;5035982;28;20216;-61
2023/02/21 13:52:23;;;;;;;14.43;8.57;;;9.00;99.90;;;;;;5034324;28;20677;-61
2023/02/21 13:55:15;;;;;;;17.10;8.83;;;9.00;99.90;;;;;;5034754;28;20536;-62
2023/02/21 13:57:44;;;;;;;14.37;7.63;;;9.00;99.90;;;;;;5035167;28;20208;-60
2023/02/21 14:00:20;;;;;;;17.07;7.70;;;9.10;99.90;;;;;;5035171;28;20559;-62
2023/02/21 14:02:58;;;;;;;11.03;5.60;;;9.10;99.90;;;;;;5037036;28;20201;-65
2023/02/21 14:05:49;;;;;;;11.27;5.90;;;9.00;99.90;;;;;;5036595;28;20240;-65
2023/02/21 14:08:36;;;;;;;10.63;6.50;;;8.90;99.90;;;;;;5035472;28;20294;-65
2023/02/21 14:11:06;;;;;;;12.43;6.43;;;9.00;99.90;;;;;;5036398;28;20599;-65
2023/02/21 14:13:50;;;;;;;11.57;6.17;;;8.90;99.90;;;;;;5035871;28;20209;-64
2023/02/21 14:16:32;;;;;;;14.60;7.30;;;8.90;99.90;;;;;;5029243;28;20230;-65
2023/02/21 14:19:05;;;;;;;11.43;6.03;;;8.90;99.90;;;;;;5035305;28;20572;-64
2023/02/21 14:21:47;;;;;;;13.30;6.93;;;8.80;99.90;;;;;;5036834;28;20270;-64
2023/02/21 14:24:27;;;;;;;12.10;6.67;;;8.80;99.90;;;;;;5037916;28;20238;-65
2023/02/21 14:27:06;;;;;;;14.00;6.30;;;8.80;99.90;;;;;;5033278;28;20199;-65
2023/02/21 14:29:55;;;;;;;16.47;8.17;;;8.70;99.90;;;;;;5033801;28;20200;-65
2023/02/21 14:32:36;;;;;;;15.13;7.00;;;8.70;99.90;;;;;;5028617;28;20208;-65
2023/02/21 14:35:15;;;;;;;15.50;7.87;;;8.60;99.90;;;;;;5035780;28;20223;-65
2023/02/21 14:37:51;;;;;;;16.33;7.57;;;8.60;99.90;;;;;;5036564;28;20716;-65
2023/02/21 14:40:33;;;;;;;18.43;9.20;;;8.60;99.90;;;;;;5031921;28;20220;-65
2023/02/21 14:43:09;;;;;;;18.63;8.50;;;8.50;99.90;;;;;;5036995;28;20298;-65
2023/02/21 14:46:01;;;;;;;15.67;7.67;;;8.60;99.90;;;;;;5038801;28;20213;-65
2023/02/21 14:48:40;;;;;;;17.47;7.80;;;8.60;99.90;;;;;;5036120;28;20258;-65
2023/02/21 14:51:40;;;;;;;16.13;7.87;;;8.60;99.90;;;;;;5037132;28;20211;-65
2023/02/21 14:54:13;;;;;;;15.40;7.67;;;8.50;99.90;;;;;;5040201;28;20302;-64
2023/02/21 14:57:07;;;;;;;22.57;9.87;;;8.60;99.90;;;;;;5037986;28;20247;-66
2023/02/21 15:00:32;;;;;;;24.70;10.47;;;8.60;99.90;;;;;;5039707;28;20210;-63
2023/02/21 15:03:19;;;;;;;24.00;10.83;;;8.60;99.90;;;;;;5032839;28;20596;-64
2023/02/21 15:05:49;;;;;;;22.13;11.30;;;8.80;99.90;;;;;;5039053;28;20366;-65
2023/02/21 15:08:24;;;;;;;23.17;10.97;;;8.70;99.90;;;;;;5040056;28;20532;-63
2023/02/21 15:11:04;;;;;;;22.53;11.33;;;8.80;99.90;;;;;;5038019;28;20205;-63
2023/02/21 15:13:33;;;;;;;24.37;10.83;;;9.00;99.90;;;;;;5033878;28;20421;-64
2023/02/21 15:16:11;;;;;;;20.47;10.23;;;8.90;99.90;;;;;;5038814;28;20216;-63
2023/02/21 15:18:59;;;;;;;21.07;10.93;;;9.00;99.90;;;;;;5039800;28;20204;-63
2023/02/21 15:21:26;;;;;;;21.43;11.63;;;8.90;99.90;;;;;;5039221;28;20197;-64
2023/02/21 15:24:13;;;;;;;23.10;10.70;;;8.80;99.90;;;;;;5038223;28;20690;-64